Time;durP1;ratioP1;P1;durP2;ratioP2;P2;SDS_P1;SDS_P2;PMS_P1;PMS_P2;Temp;Humidity;BMP_temperature;BMP_pressure;BME280_temperature;BME280_humidity;BME280_pressure;Samples;Min_cycle;Max_cycle;Signal;HPM_P1;HPM_P2
2022/12/17 13:06:07;;;;;;;30.58;19.88;;;-0.10;99.90;;;;;;5093721;28;20627;-77
2022/12/17 13:08:35;;;;;;;31.23;20.83;;;-0.20;99.90;;;;;;5092776;28;20187;-79
2022/12/17 13:11:28;;;;;;;53.63;36.05;;;-0.30;99.90;;;;;;5090032;28;20224;-78
2022/12/17 13:14:01;;;;;;;36.35;25.02;;;-0.40;99.90;;;;;;5087206;28;20195;-78
2022/12/17 13:16:41;;;;;;;36.90;22.80;;;-0.30;99.90;;;;;;5087118;28;20247;-78
2022/12/17 13:19:20;;;;;;;35.25;21.30;;;-0.30;1.00;;;;;;5092283;28;20195;-77
2022/12/17 13:21:49;;;;;;;38.17;20.92;;;-0.50;99.90;;;;;;5089161;28;20682;-77
2022/12/17 13:24:25;;;;;;;27.20;19.23;;;-0.50;99.90;;;;;;5090910;28;20226;-76
2022/12/17 13:26:55;;;;;;;36.50;26.27;;;-0.60;99.90;;;;;;5092717;27;20219;-77
2022/12/17 13:29:29;;;;;;;30.08;18.92;;;-0.60;99.90;;;;;;5089283;27;20232;-77
2022/12/17 13:32:18;;;;;;;29.25;19.15;;;-0.50;99.90;;;;;;5092464;28;20192;-77
2022/12/17 13:35:05;;;;;;;32.60;19.63;;;-0.40;99.90;;;;;;5092824;28;20192;-78
2022/12/17 13:37:45;;;;;;;27.10;18.00;;;-0.20;99.90;;;;;;5088498;28;20208;-76
2022/12/17 13:40:33;;;;;;;29.60;17.42;;;-0.40;99.90;;;;;;5095344;28;20192;-76
2022/12/17 13:43:03;;;;;;;32.60;18.08;;;-0.40;99.90;;;;;;5094159;27;20581;-76
2022/12/17 13:45:38;;;;;;;30.25;18.63;;;-0.50;99.90;;;;;;5089757;28;20227;-75
2022/12/17 13:48:06;;;;;;;27.25;19.10;;;-0.30;99.90;;;;;;5090532;28;20195;-77
2022/12/17 13:50:34;;;;;;;33.08;18.00;;;-0.30;99.90;;;;;;5090178;28;20268;-78
2022/12/17 13:53:10;;;;;;;27.02;18.85;;;-0.40;99.90;;;;;;5086061;28;20721;-77
2022/12/17 13:55:39;;;;;;;29.02;19.38;;;-0.20;99.90;;;;;;5089478;28;20223;-77
2022/12/17 13:58:21;;;;;;;28.23;17.92;;;-0.20;99.90;;;;;;5090894;28;20212;-77
2022/12/17 14:00:50;;;;;;;32.35;18.75;;;-0.30;99.90;;;;;;5088166;28;20745;-77
2022/12/17 14:03:22;;;;;;;29.15;17.20;;;-0.30;99.90;;;;;;5088867;28;20206;-76
2022/12/17 14:06:12;;;;;;;31.40;19.85;;;-0.30;99.90;;;;;;5093601;28;20717;-78
2022/12/17 14:08:40;;;;;;;32.05;19.60;;;-0.30;99.90;;;;;;5089591;28;20200;-77
2022/12/17 14:13:58;;;;;;;31.90;19.95;;;-0.40;99.90;;;;;;5096521;28;20229;-77
2022/12/17 14:16:27;;;;;;;33.10;19.40;;;-0.50;99.90;;;;;;5090567;28;20223;-77
2022/12/17 14:18:57;;;;;;;27.25;17.25;;;-0.60;99.90;;;;;;5082642;28;20206;-77
2022/12/17 14:21:27;;;;;;;35.75;18.88;;;-0.50;99.90;;;;;;5085343;28;20199;-77
2022/12/17 14:23:56;;;;;;;29.27;17.52;;;-0.50;99.90;;;;;;5083736;28;20340;-76
2022/12/17 14:26:24;;;;;;;29.33;16.90;;;-0.50;99.90;;;;;;5081715;27;20215;-77
2022/12/17 14:28:55;;;;;;;29.38;16.75;;;-0.40;99.90;;;;;;5086399;28;20203;-77
2022/12/17 14:31:27;;;;;;;26.75;15.98;;;-0.40;99.90;;;;;;5082906;28;20216;-77
2022/12/17 14:34:06;;;;;;;23.92;15.00;;;-0.60;99.90;;;;;;5089103;28;20308;-77
2022/12/17 14:36:36;;;;;;;29.17;16.70;;;-0.50;99.90;;;;;;5086176;28;20215;-74
2022/12/17 14:39:15;;;;;;;28.80;15.98;;;-0.50;99.90;;;;;;5086611;28;20203;-75
2022/12/17 14:44:31;;;;;;;26.30;15.93;;;-0.50;99.90;;;;;;5088710;28;20195;-78
2022/12/17 14:47:17;;;;;;;29.83;18.20;;;-0.60;99.90;;;;;;5087384;28;20211;-77
2022/12/17 14:49:58;;;;;;;26.13;16.58;;;-0.60;99.90;;;;;;5089621;28;20817;-77
2022/12/17 14:52:37;;;;;;;33.30;19.25;;;-0.80;54.70;;;;;;5084683;28;20303;-77
2022/12/17 14:55:27;;;;;;;25.25;17.90;;;-0.90;99.90;;;;;;5085130;28;20285;-76
2022/12/17 14:58:17;;;;;;;32.50;17.95;;;-1.00;99.90;;;;;;5087606;28;20318;-76
2022/12/17 15:00:49;;;;;;;27.33;19.48;;;-1.20;99.90;;;;;;5087529;28;20203;-76
2022/12/17 15:03:21;;;;;;;31.42;18.55;;;-1.40;99.90;;;;;;5087721;28;20308;-76
2022/12/17 15:05:57;;;;;;;33.30;20.98;;;-1.60;99.90;;;;;;5086894;28;20225;-78
2022/12/17 15:08:25;;;;;;;34.67;20.27;;;-1.60;99.90;;;;;;5085271;28;20211;-77
2022/12/17 15:10:54;;;;;;;29.05;19.35;;;-1.70;1.00;;;;;;5094047;28;20694;-77
2022/12/17 15:13:22;;;;;;;31.13;18.83;;;-1.80;99.90;;;;;;5087396;28;20223;-77
2022/12/17 15:15:50;;;;;;;32.35;20.90;;;-2.00;1.00;;;;;;5089380;28;20223;-77
2022/12/17 15:18:20;;;;;;;31.92;20.02;;;-2.00;99.90;;;;;;5087570;28;20210;-76
2022/12/17 15:20:48;;;;;;;33.05;20.27;;;-2.10;1.00;;;;;;5090504;28;20191;-76
2022/12/17 15:23:18;;;;;;;34.38;20.45;;;-2.20;1.00;;;;;;5087550;28;20191;-76
2022/12/17 15:25:48;;;;;;;34.92;21.42;;;-2.20;11.60;;;;;;5086198;28;20229;-76
2022/12/17 15:28:17;;;;;;;43.03;25.58;;;-2.30;1.00;;;;;;5092139;28;20183;-76
2022/12/17 15:30:46;;;;;;;33.95;20.25;;;-2.40;1.00;;;;;;5096494;28;20208;-78
2022/12/17 15:33:14;;;;;;;32.15;22.40;;;-2.50;1.00;;;;;;5098603;28;20218;-77
2022/12/17 15:35:44;;;;;;;45.22;25.27;;;-2.60;1.00;;;;;;5091489;28;20215;-78
2022/12/17 15:38:13;;;;;;;37.55;20.65;;;-2.60;1.00;;;;;;5086266;28;20197;-77
2022/12/17 15:40:41;;;;;;;56.65;31.30;;;-2.60;1.00;;;;;;5092473;28;20647;-77
2022/12/17 15:43:10;;;;;;;38.47;21.08;;;-2.60;1.00;;;;;;5088906;28;20203;-76
2022/12/17 15:45:39;;;;;;;37.88;21.02;;;-2.90;1.00;;;;;;5092682;27;20266;-77
2022/12/17 15:48:09;;;;;;;40.25;22.27;;;-3.10;56.90;;;;;;5090657;28;20191;-77
2022/12/17 15:50:37;;;;;;;37.20;21.67;;;-3.10;99.90;;;;;;5090182;27;20872;-76
2022/12/17 15:53:08;;;;;;;54.13;29.92;;;-3.30;99.90;;;;;;5083212;28;20236;-78
2022/12/17 15:55:36;;;;;;;46.25;26.85;;;-3.10;1.00;;;;;;5092348;27;20965;-78
2022/12/17 15:58:05;;;;;;;40.30;24.40;;;-3.10;99.90;;;;;;5092477;28;20237;-77
2022/12/17 16:00:34;;;;;;;41.10;25.42;;;-3.10;99.90;;;;;;5092856;27;20591;-78
2022/12/17 16:03:02;;;;;;;39.50;21.67;;;-3.20;1.00;;;;;;5094136;28;20213;-77
2022/12/17 16:05:31;;;;;;;34.97;22.70;;;-3.30;99.90;;;;;;5094701;28;20221;-77
2022/12/17 16:08:01;;;;;;;42.75;25.85;;;-3.40;99.90;;;;;;5088262;28;20472;-78
2022/12/17 16:10:31;;;;;;;51.30;29.88;;;-3.30;99.90;;;;;;5092704;28;20277;-78
2022/12/17 16:12:59;;;;;;;49.25;28.27;;;-3.40;99.90;;;;;;5085705;27;20215;-78
2022/12/17 16:15:27;;;;;;;58.63;33.25;;;-3.20;99.90;;;;;;5090175;27;22853;-77
2022/12/17 16:17:56;;;;;;;42.67;26.50;;;-3.20;67.50;;;;;;5090569;28;20223;-77
2022/12/17 16:20:24;;;;;;;48.05;26.80;;;-3.40;1.00;;;;;;5090659;28;22671;-77
2022/12/17 16:22:53;;;;;;;45.63;28.77;;;-3.30;99.90;;;;;;5088588;28;20203;-77
2022/12/17 16:25:21;;;;;;;57.60;35.47;;;-3.30;29.60;;;;;;5090597;28;20216;-76
2022/12/17 16:27:50;;;;;;;71.35;41.15;;;-3.30;1.00;;;;;;5093657;28;20297;-77
2022/12/17 16:30:19;;;;;;;39.53;23.27;;;-3.50;1.00;;;;;;5097720;28;20254;-77
2022/12/17 16:32:47;;;;;;;49.85;30.45;;;-3.40;1.00;;;;;;5094911;28;20437;-80
2022/12/17 16:35:15;;;;;;;48.80;31.42;;;-3.50;1.00;;;;;;5101231;27;20780;-77
2022/12/17 16:37:43;;;;;;;49.20;29.52;;;-3.70;1.00;;;;;;5097237;28;20202;-80
2022/12/17 16:40:12;;;;;;;52.83;34.00;;;-3.60;20.50;;;;;;5096030;28;20202;-79
2022/12/17 16:42:40;;;;;;;62.42;36.70;;;-3.70;1.00;;;;;;5092852;28;20292;-78
2022/12/17 16:45:10;;;;;;;52.25;29.05;;;-3.90;1.00;;;;;;5095094;28;20221;-77
2022/12/17 16:47:38;;;;;;;45.65;28.40;;;-4.00;1.00;;;;;;5095932;28;20196;-77
2022/12/17 16:50:07;;;;;;;67.88;36.35;;;-4.10;99.90;;;;;;5097733;28;20203;-77
2022/12/17 16:52:35;;;;;;;57.03;32.78;;;-4.00;1.00;;;;;;5093016;28;20211;-78
2022/12/17 16:55:04;;;;;;;59.83;34.45;;;-4.00;1.00;;;;;;5094738;28;20259;-78
2022/12/17 16:57:32;;;;;;;44.63;29.63;;;-4.30;45.50;;;;;;5097815;28;20212;-79
2022/12/17 17:00:00;;;;;;;46.78;29.27;;;-4.30;99.90;;;;;;5091777;28;20188;-78
2022/12/17 17:02:31;;;;;;;53.88;31.10;;;-4.30;1.00;;;;;;5098739;27;20211;-75
2022/12/17 17:05:00;;;;;;;49.80;30.83;;;-4.30;1.00;;;;;;5100458;28;20220;-75
2022/12/17 17:07:29;;;;;;;55.60;32.13;;;-4.40;1.00;;;;;;5098266;27;20287;-77
2022/12/17 17:09:57;;;;;;;52.90;31.80;;;-4.40;1.00;;;;;;5096715;27;20202;-75
2022/12/17 17:12:25;;;;;;;48.22;29.90;;;-4.30;1.00;;;;;;5100391;28;20212;-75
2022/12/17 17:14:53;;;;;;;63.85;36.63;;;-4.30;99.90;;;;;;5100846;28;20224;-75
2022/12/17 17:17:22;;;;;;;71.10;42.28;;;-4.20;99.90;;;;;;5095437;27;20246;-77
2022/12/17 17:20:12;;;;;;;60.65;38.10;;;-4.30;64.80;;;;;;5091305;28;20666;-77
2022/12/17 17:22:40;;;;;;;62.78;36.38;;;-4.20;1.00;;;;;;5094496;28;20250;-76
2022/12/17 17:25:09;;;;;;;52.72;35.28;;;-4.40;1.00;;;;;;5095631;28;20316;-76
2022/12/17 17:27:37;;;;;;;56.25;34.38;;;-4.50;1.00;;;;;;5094177;28;20417;-77
2022/12/17 17:30:06;;;;;;;103.13;48.67;;;-4.60;1.00;;;;;;5093364;28;20216;-76
2022/12/17 17:32:35;;;;;;;58.28;33.38;;;-4.70;99.90;;;;;;5094310;28;20291;-77
2022/12/17 17:35:04;;;;;;;45.88;30.65;;;-4.70;1.00;;;;;;5094376;28;20224;-77
2022/12/17 17:37:34;;;;;;;47.58;26.58;;;-4.70;1.00;;;;;;5089053;27;20200;-78
2022/12/17 17:40:02;;;;;;;44.65;28.77;;;-4.70;99.90;;;;;;5096078;28;20205;-76
2022/12/17 17:42:31;;;;;;;50.80;26.70;;;-4.70;1.00;;;;;;5096839;28;20200;-79
2022/12/17 17:44:59;;;;;;;50.22;28.92;;;-4.80;1.00;;;;;;5096301;27;20682;-78
2022/12/17 17:47:28;;;;;;;44.90;29.02;;;-4.90;99.90;;;;;;5093439;28;20210;-76
2022/12/17 17:49:57;;;;;;;49.60;29.42;;;-4.80;1.00;;;;;;5095010;27;20207;-76
2022/12/17 17:52:26;;;;;;;43.67;27.48;;;-4.90;1.00;;;;;;5091119;27;20213;-77
2022/12/17 17:54:56;;;;;;;55.15;30.23;;;-4.90;1.00;;;;;;5091972;28;20245;-77
2022/12/17 17:57:24;;;;;;;48.88;29.77;;;-4.90;1.00;;;;;;5093124;27;20210;-77
2022/12/17 17:59:52;;;;;;;42.10;29.08;;;-4.90;1.00;;;;;;5096067;28;20301;-77
2022/12/17 18:02:21;;;;;;;43.00;28.70;;;-4.80;1.00;;;;;;5093412;28;20197;-77
2022/12/17 18:04:49;;;;;;;48.40;30.77;;;-4.90;99.90;;;;;;5091666;28;20676;-76
2022/12/17 18:07:18;;;;;;;45.67;27.48;;;-5.00;99.90;;;;;;5095515;28;20215;-76
2022/12/17 18:09:58;;;;;;;46.97;28.80;;;-5.10;99.90;;;;;;5094622;28;20203;-77
2022/12/17 18:15:12;;;;;;;42.40;29.40;;;-5.10;1.00;;;;;;5097633;27;20241;-78
2022/12/17 18:17:44;;;;;;;57.97;35.25;;;-5.10;1.00;;;;;;5097033;28;20613;-78
2022/12/17 18:20:13;;;;;;;48.78;29.40;;;-5.10;1.00;;;;;;5097001;28;20302;-76
2022/12/17 18:22:42;;;;;;;56.20;30.58;;;-5.20;99.90;;;;;;5093888;28;20237;-77
2022/12/17 18:25:11;;;;;;;50.13;30.35;;;-5.10;99.90;;;;;;5097949;28;20222;-79
2022/12/17 18:27:40;;;;;;;51.30;29.02;;;-5.00;1.00;;;;;;5096014;28;20204;-78
2022/12/17 18:30:09;;;;;;;47.70;27.42;;;-4.90;1.00;;;;;;5096921;28;20678;-79
2022/12/17 18:32:37;;;;;;;48.67;28.63;;;-5.10;99.90;;;;;;5097181;28;20203;-76
2022/12/17 18:35:07;;;;;;;54.95;30.15;;;-5.10;1.00;;;;;;5092605;28;20228;-77
2022/12/17 18:37:35;;;;;;;54.05;31.65;;;-5.10;1.00;;;;;;5090605;28;20206;-79
2022/12/17 18:40:04;;;;;;;61.75;35.10;;;-5.00;99.90;;;;;;5090754;28;20199;-76
2022/12/17 18:45:20;;;;;;;60.50;32.78;;;-5.00;1.00;;;;;;5087475;28;20219;-78
2022/12/17 18:47:49;;;;;;;51.38;27.65;;;-5.10;99.90;;;;;;5096042;28;20192;-77
2022/12/17 18:50:18;;;;;;;49.47;28.02;;;-5.20;99.90;;;;;;5090237;28;20531;-76
2022/12/17 18:52:46;;;;;;;53.83;27.73;;;-5.30;99.90;;;;;;5090718;28;20226;-77
2022/12/17 18:55:15;;;;;;;50.33;30.40;;;-5.30;99.90;;;;;;5093728;28;20239;-77
2022/12/17 18:57:44;;;;;;;58.42;30.67;;;-5.30;99.90;;;;;;5093207;28;20650;-76
2022/12/17 19:00:14;;;;;;;44.17;28.92;;;-5.40;99.90;;;;;;5092977;28;20195;-77
2022/12/17 19:02:42;;;;;;;45.90;27.42;;;-5.40;99.90;;;;;;5097850;28;20188;-78
2022/12/17 19:05:11;;;;;;;52.67;30.48;;;-5.40;99.90;;;;;;5099886;28;20699;-79
2022/12/17 19:07:39;;;;;;;46.60;27.92;;;-5.40;99.90;;;;;;5107567;27;20202;-78
2022/12/17 19:10:08;;;;;;;47.30;30.17;;;-5.40;99.90;;;;;;5099732;28;20215;-78
2022/12/17 19:12:36;;;;;;;49.50;30.98;;;-5.30;99.90;;;;;;5104593;27;20233;-78
2022/12/17 19:15:07;;;;;;;49.38;28.23;;;-5.40;1.00;;;;;;5099646;27;20223;-78
2022/12/17 19:17:36;;;;;;;47.15;28.63;;;-5.40;1.00;;;;;;5104630;27;20284;-79
2022/12/17 19:20:05;;;;;;;65.80;33.05;;;-5.30;1.00;;;;;;5102927;28;20293;-79
2022/12/17 19:22:33;;;;;;;56.13;33.35;;;-5.30;1.00;;;;;;5105464;27;20248;-79
2022/12/17 19:25:01;;;;;;;58.97;34.63;;;-5.40;1.00;;;;;;5099682;28;20299;-80
2022/12/17 19:27:29;;;;;;;55.85;33.53;;;-5.40;99.90;;;;;;5108900;28;20199;-82
2022/12/17 19:29:58;;;;;;;55.45;32.13;;;-5.50;70.80;;;;;;5110628;28;20579;-80
2022/12/17 19:32:28;;;;;;;58.53;33.85;;;-5.60;99.90;;;;;;5113406;28;20259;-80
2022/12/17 19:34:56;;;;;;;54.08;32.53;;;-5.70;99.90;;;;;;5102046;28;20269;-81
2022/12/17 19:37:25;;;;;;;55.72;33.55;;;-5.80;99.90;;;;;;5108494;27;20208;-82
2022/12/17 19:39:53;;;;;;;58.50;34.40;;;-5.70;99.90;;;;;;5116301;28;20199;-80
2022/12/17 19:42:24;;;;;;;51.38;30.48;;;-5.60;99.90;;;;;;5116922;27;20203;-81
2022/12/17 19:44:53;;;;;;;58.30;34.10;;;-5.70;99.90;;;;;;5097959;28;20192;-77
2022/12/17 19:47:22;;;;;;;46.03;28.33;;;-5.70;99.90;;;;;;5103348;28;20219;-78
2022/12/17 19:49:52;;;;;;;46.67;26.20;;;-5.60;1.00;;;;;;5099783;28;20200;-79
2022/12/17 19:52:20;;;;;;;43.28;26.42;;;-5.60;1.00;;;;;;5093405;28;20207;-79
2022/12/17 19:54:49;;;;;;;42.28;27.42;;;-5.60;1.00;;;;;;5098045;28;20207;-77
2022/12/17 19:57:17;;;;;;;43.05;26.13;;;-5.50;99.90;;;;;;5104064;28;20229;-78
2022/12/17 19:59:45;;;;;;;47.42;30.88;;;-5.60;1.00;;;;;;5092662;28;20207;-79
2022/12/17 20:02:16;;;;;;;45.95;28.58;;;-5.60;1.00;;;;;;5101059;27;20200;-80
2022/12/17 20:04:44;;;;;;;44.97;27.60;;;-5.70;99.90;;;;;;5095320;28;20286;-78
2022/12/17 20:07:14;;;;;;;41.00;27.48;;;-5.70;1.00;;;;;;5094068;28;20725;-79
2022/12/17 20:09:43;;;;;;;46.92;26.38;;;-5.60;7.50;;;;;;5092789;28;20203;-78
2022/12/17 20:12:12;;;;;;;46.30;26.40;;;-5.70;99.90;;;;;;5098391;28;20199;-78
2022/12/17 20:14:40;;;;;;;40.47;27.65;;;-5.80;99.90;;;;;;5097555;27;20215;-80
2022/12/17 20:17:09;;;;;;;51.75;28.77;;;-5.80;99.90;;;;;;5100475;27;20200;-76
2022/12/17 20:19:37;;;;;;;45.28;28.50;;;-5.90;99.90;;;;;;5100142;27;20223;-78
2022/12/17 20:22:06;;;;;;;59.10;31.33;;;-5.80;99.90;;;;;;5096441;28;20682;-77
2022/12/17 20:24:38;;;;;;;57.42;31.20;;;-5.80;99.90;;;;;;5092405;28;20191;-78
2022/12/17 20:27:06;;;;;;;54.40;32.15;;;-5.90;65.30;;;;;;5093796;28;20204;-79
2022/12/17 20:29:35;;;;;;;46.00;30.05;;;-6.00;99.90;;;;;;5100417;27;20202;-79
2022/12/17 20:32:04;;;;;;;46.75;30.80;;;-5.90;48.90;;;;;;5094836;27;20557;-79
2022/12/17 20:34:32;;;;;;;56.03;34.58;;;-5.90;99.90;;;;;;5083108;28;20484;-79
2022/12/17 20:37:00;;;;;;;58.72;37.53;;;-6.10;99.90;;;;;;5093471;27;20242;-77
2022/12/17 20:39:29;;;;;;;52.38;30.17;;;-6.10;99.90;;;;;;5090678;28;20203;-78
2022/12/17 20:41:58;;;;;;;50.00;30.35;;;-6.00;99.90;;;;;;5091712;28;20200;-78
2022/12/17 20:44:26;;;;;;;47.63;29.50;;;-6.00;62.90;;;;;;5088013;28;20887;-78
2022/12/17 20:46:54;;;;;;;45.05;26.90;;;-5.90;6.80;;;;;;5088614;28;20238;-79
2022/12/17 20:49:23;;;;;;;55.22;31.85;;;-6.00;1.00;;;;;;5087602;28;20252;-78
2022/12/17 20:51:51;;;;;;;60.20;34.42;;;-6.10;1.00;;;;;;5084798;28;20219;-79
2022/12/17 20:54:20;;;;;;;58.97;33.42;;;-6.10;99.90;;;;;;5092987;28;20215;-79
2022/12/17 20:56:48;;;;;;;49.95;32.95;;;-6.00;33.60;;;;;;5092736;28;20220;-79
2022/12/17 20:59:19;;;;;;;50.13;32.03;;;-6.00;20.80;;;;;;5098281;28;20203;-79
2022/12/17 21:01:48;;;;;;;49.13;29.80;;;-6.00;1.00;;;;;;5098288;28;20253;-77
2022/12/17 21:04:23;;;;;;;55.05;31.98;;;-6.10;10.70;;;;;;5099110;27;20206;-78
2022/12/17 21:06:52;;;;;;;59.70;35.10;;;-6.00;99.90;;;;;;5094650;28;21001;-78
2022/12/17 21:09:21;;;;;;;48.65;30.17;;;-6.00;99.90;;;;;;5093281;28;20332;-77
2022/12/17 21:11:50;;;;;;;60.17;32.78;;;-6.00;95.60;;;;;;5096694;28;20207;-76
2022/12/17 21:14:20;;;;;;;57.15;32.97;;;-6.20;45.60;;;;;;5098586;28;20239;-78
2022/12/17 21:16:48;;;;;;;49.35;30.42;;;-6.00;99.90;;;;;;5097647;28;20211;-77
2022/12/17 21:19:18;;;;;;;54.50;31.55;;;-6.00;99.90;;;;;;5098926;28;20203;-78
2022/12/17 21:21:47;;;;;;;53.83;32.00;;;-6.00;1.00;;;;;;5101003;28;20342;-78
2022/12/17 21:24:15;;;;;;;55.53;31.88;;;-6.20;1.00;;;;;;5093158;28;20202;-78
2022/12/17 21:26:44;;;;;;;47.28;31.25;;;-6.20;1.00;;;;;;5101014;27;20215;-78
2022/12/17 21:29:14;;;;;;;47.63;28.85;;;-6.20;1.00;;;;;;5093115;28;20207;-75
2022/12/17 21:31:45;;;;;;;51.50;30.35;;;-6.20;1.00;;;;;;5090035;28;20206;-75
2022/12/17 21:34:16;;;;;;;52.47;30.20;;;-6.30;1.00;;;;;;5093905;28;20213;-77
2022/12/17 21:36:44;;;;;;;59.40;32.88;;;-6.30;1.00;;;;;;5095121;28;20250;-75
2022/12/17 21:39:14;;;;;;;60.92;33.78;;;-6.40;1.00;;;;;;5096266;28;20697;-76
2022/12/17 21:43:00;;;;;;;62.67;37.25;;;-6.40;1.00;;;;;;5096950;27;20764;-74
2022/12/17 21:44:34;;;;;;;56.70;36.83;;;-6.40;1.00;;;;;;5088478;28;20202;-76
2022/12/17 21:47:04;;;;;;;54.45;33.38;;;-6.40;11.40;;;;;;5093764;28;20234;-78
2022/12/17 21:49:32;;;;;;;55.75;36.13;;;-6.40;29.50;;;;;;5101543;27;20188;-75
2022/12/17 21:52:01;;;;;;;54.38;33.58;;;-6.40;1.00;;;;;;5098151;27;20432;-77
2022/12/17 21:54:30;;;;;;;58.63;33.92;;;-6.40;1.00;;;;;;5089292;28;20237;-76
2022/12/17 21:56:58;;;;;;;54.42;33.05;;;-6.40;1.00;;;;;;5097082;28;20207;-76
2022/12/17 21:59:26;;;;;;;52.13;33.58;;;-6.20;1.00;;;;;;5087886;28;20195;-77
2022/12/17 22:01:55;;;;;;;56.90;33.20;;;-6.30;1.00;;;;;;5092614;28;20195;-75
2022/12/17 22:04:26;;;;;;;55.40;34.10;;;-6.40;1.00;;;;;;5094396;27;20296;-76
2022/12/17 22:06:54;;;;;;;57.47;35.17;;;-6.50;1.00;;;;;;5092090;28;20699;-76
2022/12/17 22:09:42;;;;;;;65.28;40.97;;;-6.60;1.00;;;;;;5090821;28;20447;-77
2022/12/17 22:15:16;;;;;;;65.90;33.20;;;-6.60;1.00;;;;;;5097610;28;20666;-75
2022/12/17 22:17:45;;;;;;;52.67;34.53;;;-6.60;1.00;;;;;;5093927;28;20631;-77
2022/12/17 22:20:16;;;;;;;69.35;35.75;;;-6.60;1.00;;;;;;5092574;28;20199;-76
2022/12/17 22:22:44;;;;;;;57.53;34.85;;;-6.60;1.00;;;;;;5088392;28;20199;-76
2022/12/17 22:25:13;;;;;;;59.05;35.03;;;-6.70;1.00;;;;;;5087824;28;20653;-75
2022/12/17 22:27:42;;;;;;;59.60;33.85;;;-6.80;1.00;;;;;;5090106;28;20256;-78
2022/12/17 22:33:02;;;;;;;48.30;32.13;;;-6.80;1.00;;;;;;5039605;28;20207;-75
2022/12/17 22:35:42;;;;;;;55.15;31.98;;;-6.80;1.00;;;;;;5089440;28;20228;-75
2022/12/17 22:38:30;;;;;;;61.00;32.80;;;-6.80;1.00;;;;;;5088786;28;20285;-76
2022/12/17 22:44:20;;;;;;;56.55;34.53;;;-6.90;1.00;;;;;;5090131;28;20199;-77
2022/12/17 22:47:08;;;;;;;65.25;33.78;;;-6.80;1.00;;;;;;5088026;28;20276;-75
2022/12/17 22:49:38;;;;;;;56.67;34.83;;;-6.80;1.00;;;;;;5089108;28;20210;-74
2022/12/17 22:52:07;;;;;;;59.53;32.85;;;-6.80;1.00;;;;;;5086809;28;20479;-74
2022/12/17 22:54:36;;;;;;;55.05;32.60;;;-6.90;1.00;;;;;;5084708;28;21475;-76
2022/12/17 22:57:04;;;;;;;56.92;35.30;;;-6.80;1.00;;;;;;5089323;28;20248;-74
2022/12/17 22:59:52;;;;;;;52.72;33.67;;;-6.90;1.00;;;;;;5089475;28;20269;-75
2022/12/17 23:02:20;;;;;;;52.03;30.80;;;-6.90;1.00;;;;;;5084953;28;20200;-76
2022/12/17 23:04:49;;;;;;;50.63;31.40;;;-7.00;1.00;;;;;;5086300;28;20592;-77
2022/12/17 23:07:18;;;;;;;58.15;31.45;;;-6.90;1.00;;;;;;5086659;28;20202;-76
2022/12/17 23:09:46;;;;;;;52.28;32.45;;;-6.90;1.00;;;;;;5087498;28;20222;-75
2022/12/17 23:15:06;;;;;;;59.33;35.20;;;-6.90;1.00;;;;;;5070590;28;20235;-76
2022/12/17 23:17:35;;;;;;;52.30;33.60;;;-7.00;1.00;;;;;;5086690;28;20211;-74
2022/12/17 23:20:04;;;;;;;61.00;36.13;;;-7.00;1.00;;;;;;5086772;28;20240;-76
2022/12/17 23:22:35;;;;;;;102.25;52.33;;;-7.00;1.00;;;;;;5088870;28;20218;-75
2022/12/17 23:25:12;;;;;;;74.65;44.20;;;-7.00;1.00;;;;;;5088520;28;20215;-76
2022/12/17 23:27:40;;;;;;;67.32;38.83;;;-6.90;1.00;;;;;;5092800;28;20571;-76
2022/12/17 23:30:10;;;;;;;61.90;36.90;;;-6.90;1.00;;;;;;5086339;28;20199;-76
2022/12/17 23:32:38;;;;;;;62.50;36.72;;;-6.80;1.00;;;;;;5086917;27;20200;-77
2022/12/17 23:35:08;;;;;;;68.18;35.53;;;-6.80;1.00;;;;;;5089421;28;20219;-76
2022/12/17 23:37:38;;;;;;;66.50;36.00;;;-6.80;1.00;;;;;;5091243;28;20203;-76
2022/12/17 23:40:08;;;;;;;53.47;32.67;;;-6.90;1.00;;;;;;5090476;28;20210;-76
2022/12/17 23:42:37;;;;;;;48.10;31.60;;;-7.10;1.00;;;;;;5088966;28;20198;-76
2022/12/17 23:45:06;;;;;;;49.92;32.03;;;-7.00;1.00;;;;;;5086936;28;20488;-76
2022/12/17 23:47:34;;;;;;;57.75;31.75;;;-6.90;1.00;;;;;;5088272;28;20287;-77
2022/12/17 23:50:02;;;;;;;47.85;33.20;;;-7.00;1.00;;;;;;5091205;28;20211;-79
2022/12/17 23:52:31;;;;;;;51.83;32.10;;;-7.00;1.00;;;;;;5091470;28;20200;-76
2022/12/17 23:55:01;;;;;;;51.15;30.95;;;-7.10;1.00;;;;;;5092186;28;20963;-76
2022/12/17 23:57:29;;;;;;;50.63;30.30;;;-7.10;1.00;;;;;;5096485;27;20195;-80
2022/12/17 23:59:57;;;;;;;52.85;30.85;;;-7.00;1.00;;;;;;5095283;28;20191;-77
